createdAt,value
2022-08-28T00:00:21.222Z,100223.75
2022-08-28T00:05:44.653Z,100222.02
2022-08-28T00:10:50.453Z,100218.80
2022-08-28T00:16:00.757Z,100219.80
2022-08-28T00:21:07.944Z,100222.61
2022-08-28T00:26:33.958Z,100216.83
2022-08-28T00:31:40.282Z,100218.21
2022-08-28T00:36:46.247Z,100217.37
2022-08-28T00:41:52.751Z,100210.96
2022-08-28T00:47:04.395Z,100210.61
2022-08-28T00:52:12.421Z,100208.77
2022-08-28T00:57:23.133Z,100211.35
2022-08-28T01:02:33.275Z,100212.58
2022-08-28T01:07:39.914Z,100207.04
2022-08-28T01:12:47.340Z,100208.58
2022-08-28T01:17:58.842Z,100206.32
2022-08-28T01:23:14.225Z,100199.40
2022-08-28T01:28:20.256Z,100194.87
2022-08-28T01:33:27.953Z,100201.39
2022-08-28T01:38:34.640Z,100205.95
2022-08-28T01:43:41.902Z,100206.45
2022-08-28T01:48:48.193Z,100204.32
2022-08-28T01:53:54.125Z,100202.36
2022-08-28T01:59:01.541Z,100198.97
2022-08-28T02:04:07.943Z,100199.40
2022-08-28T02:09:14.768Z,100201.70
2022-08-28T02:14:22.444Z,100196.54
2022-08-28T02:19:28.301Z,100199.85
2022-08-28T02:24:34.079Z,100198.33
2022-08-28T02:29:44.248Z,100199.15
2022-08-28T02:34:50.135Z,100196.52
2022-08-28T02:39:58.103Z,100188.46
2022-08-28T02:45:04.558Z,100194.20
2022-08-28T02:50:13.162Z,100187.68
2022-08-28T02:55:20.880Z,100191.44
2022-08-28T03:00:27.667Z,100195.45
2022-08-28T03:05:33.448Z,100194.81
2022-08-28T03:10:39.289Z,100193.99
2022-08-28T03:15:45.156Z,100192.80
2022-08-28T03:20:51.819Z,100195.95
2022-08-28T03:26:00.736Z,100196.70
2022-08-28T03:31:07.519Z,100194.02
2022-08-28T03:36:16.748Z,100187.16
2022-08-28T03:41:25.357Z,100188.08
2022-08-28T03:46:33.184Z,100187.36
2022-08-28T03:51:40.931Z,100190.17
2022-08-28T03:56:47.310Z,100203.45
2022-08-28T04:01:53.469Z,100208.08
2022-08-28T04:06:59.198Z,100210.48
2022-08-28T04:12:06.899Z,100215.84
2022-08-28T04:17:13.294Z,100219.25
2022-08-28T04:22:19.551Z,100225.02
2022-08-28T04:27:25.457Z,100226.70
2022-08-28T04:32:33.530Z,100222.02
2022-08-28T04:37:40.246Z,100214.89
2022-08-28T04:42:47.480Z,100209.52
2022-08-28T04:47:54.168Z,100207.09
2022-08-28T04:53:00.094Z,100209.85
2022-08-28T04:58:06.190Z,100203.44
2022-08-28T05:03:13.871Z,100199.74
2022-08-28T05:08:23.327Z,100211.91
2022-08-28T05:13:29.393Z,100206.90
2022-08-28T05:18:35.947Z,100213.77
2022-08-28T05:23:42.238Z,100213.52
2022-08-28T05:28:48.382Z,100220.56
2022-08-28T05:33:55.204Z,100223.70
2022-08-28T05:39:04.841Z,100223.42
2022-08-28T05:44:13.393Z,100217.10
2022-08-28T05:49:20.181Z,100220.20
2022-08-28T05:54:29.011Z,100215.45
2022-08-28T05:59:33.491Z,100217.55
2022-08-28T06:04:40.563Z,100231.72
2022-08-28T06:09:46.729Z,100229.40
2022-08-28T06:14:52.879Z,100233.48
2022-08-28T06:20:01.980Z,100228.02
2022-08-28T06:25:15.631Z,100225.98
2022-08-28T06:30:37.413Z,100224.56
2022-08-28T06:35:49.304Z,100228.27
2022-08-28T06:40:56.779Z,100222.52
2022-08-28T06:46:02.694Z,100228.40
2022-08-28T06:51:11.271Z,100228.31
2022-08-28T06:56:40.558Z,100223.95
2022-08-28T07:01:56.936Z,100216.86
2022-08-28T07:07:31.541Z,100216.02
2022-08-28T07:13:11.154Z,100221.04
2022-08-28T07:18:30.034Z,100224.23
2022-08-28T07:23:50.639Z,100226.08
2022-08-28T07:29:30.962Z,100223.33
2022-08-28T07:34:59.919Z,100221.10
2022-08-28T07:40:41.342Z,100213.14
2022-08-28T07:46:16.455Z,100216.11
2022-08-28T07:51:32.137Z,100219.60
2022-08-28T07:56:45.034Z,100216.59
2022-08-28T08:02:23.704Z,100208.86
2022-08-28T08:07:36.406Z,100212.10
2022-08-28T08:12:47.199Z,100219.52
2022-08-28T08:18:10.408Z,100221.95
2022-08-28T08:23:24.141Z,100221.67
2022-08-28T08:28:32.779Z,100220.86
2022-08-28T08:33:44.660Z,100224.45
2022-08-28T08:38:59.507Z,100220.48
2022-08-28T08:44:21.459Z,100223.39
2022-08-28T08:49:34.458Z,100225.08
2022-08-28T08:54:44.646Z,100225.41
2022-08-28T08:59:50.810Z,100231.77
2022-08-28T09:05:01.694Z,100227.09
2022-08-28T09:10:12.266Z,100228.50
2022-08-28T09:15:27.547Z,100229.06
2022-08-28T09:20:33.654Z,100231.98
2022-08-28T09:25:52.816Z,100225.25
2022-08-28T09:31:03.078Z,100222.25
2022-08-28T09:36:31.846Z,100219.96
2022-08-28T09:42:03.066Z,100218.84
2022-08-28T09:47:46.509Z,100216.66
2022-08-28T09:52:55.401Z,100212.86
2022-08-28T09:58:01.636Z,100216.30
2022-08-28T10:03:14.642Z,100214.11
2022-08-28T10:08:38.499Z,100215.07
2022-08-28T10:13:53.483Z,100213.05
2022-08-28T10:19:10.061Z,100216.02
2022-08-28T10:24:30.446Z,100216.45
2022-08-28T10:29:49.473Z,100209.04
2022-08-28T10:35:06.117Z,100207.98
2022-08-28T10:40:14.350Z,100203.67
2022-08-28T10:45:23.977Z,100202.88
2022-08-28T10:50:40.831Z,100202.83
2022-08-28T10:55:54.094Z,100203.51
2022-08-28T11:01:06.629Z,100200.81
2022-08-28T11:06:22.982Z,100201.29
2022-08-28T11:11:48.658Z,100197.66
2022-08-28T11:16:56.899Z,100194.73
2022-08-28T11:22:10.338Z,100192.38
2022-08-28T11:27:29.415Z,100189.78
2022-08-28T11:32:59.792Z,100184.17
2022-08-28T11:38:07.219Z,100182.05
2022-08-28T11:43:34.870Z,100184.51
2022-08-28T11:48:58.552Z,100185.00
2022-08-28T11:54:19.852Z,100184.98
2022-08-28T11:59:49.539Z,100184.61
2022-08-28T12:04:55.414Z,100185.70
2022-08-28T12:10:04.942Z,100189.52
2022-08-28T12:15:33.483Z,100186.22
2022-08-28T12:20:57.797Z,100186.23
2022-08-28T12:26:05.737Z,100185.39
2022-08-28T12:31:52.342Z,100183.56
2022-08-28T12:37:00.152Z,100175.78
2022-08-28T12:42:14.758Z,100168.04
2022-08-28T12:47:23.739Z,100160.77
2022-08-28T12:52:32.262Z,100157.98
2022-08-28T12:57:46.722Z,100151.29
2022-08-28T13:02:55.038Z,100145.34
2022-08-28T13:08:03.793Z,100138.98
2022-08-28T13:13:18.551Z,100127.62
2022-08-28T13:18:47.425Z,100127.48
2022-08-28T13:23:55.394Z,100130.14
2022-08-28T13:29:05.034Z,100126.94
2022-08-28T13:34:26.948Z,100118.30
2022-08-28T13:39:34.541Z,100116.63
2022-08-28T13:44:53.212Z,100114.36
2022-08-28T13:59:44.539Z,100114.81
2022-08-28T14:05:24.239Z,100107.71
2022-08-28T14:10:30.827Z,100117.31
2022-08-28T14:15:36.974Z,100117.77
2022-08-28T14:20:42.920Z,100108.09
2022-08-28T14:25:49.621Z,100109.11
2022-08-28T14:30:56.914Z,100118.38
2022-08-28T14:36:03.649Z,100118.96
2022-08-28T14:41:11.259Z,100119.25
2022-08-28T14:46:19.953Z,100135.73
2022-08-28T14:51:27.302Z,100145.89
2022-08-28T14:56:35.346Z,100149.91
2022-08-28T15:01:43.731Z,100141.36
2022-08-28T15:06:55.003Z,100142.52
2022-08-28T15:12:02.775Z,100137.24
2022-08-28T15:17:09.869Z,100125.31
2022-08-28T15:22:20.059Z,100116.75
2022-08-28T15:27:37.628Z,100121.38
2022-08-28T15:32:49.952Z,100141.17
2022-08-28T15:37:57.691Z,100144.80
2022-08-28T15:43:05.699Z,100136.16
2022-08-28T15:48:13.222Z,100129.65
2022-08-28T15:53:19.355Z,100134.59
2022-08-28T15:58:26.747Z,100133.52
2022-08-28T16:03:35.670Z,100142.73
2022-08-28T16:08:42.274Z,100139.23
2022-08-28T16:13:48.671Z,100147.98
2022-08-28T16:18:54.546Z,100146.85
2022-08-28T16:24:01.373Z,100138.06
2022-08-28T16:29:07.651Z,100138.54
2022-08-28T16:34:14.040Z,100150.19
2022-08-28T16:39:21.005Z,100160.55
2022-08-28T16:44:27.814Z,100162.96
2022-08-28T16:49:33.675Z,100149.82
2022-08-28T16:54:48.512Z,100166.45
2022-08-28T16:59:55.449Z,100173.77
2022-08-28T17:05:01.987Z,100172.40
2022-08-28T17:10:12.348Z,100171.27
2022-08-28T17:15:18.568Z,100179.01
2022-08-28T17:20:43.453Z,100176.52
2022-08-28T17:25:49.623Z,100177.09
2022-08-28T17:30:55.686Z,100181.76
2022-08-28T17:36:01.691Z,100190.48
2022-08-28T17:41:08.170Z,100193.64
2022-08-28T17:46:14.440Z,100195.30
2022-08-28T17:51:20.228Z,100204.91
2022-08-28T17:56:39.410Z,100222.61
2022-08-28T18:01:46.906Z,100248.80
2022-08-28T18:06:54.514Z,100260.71
2022-08-28T18:12:01.208Z,100262.48
2022-08-28T18:17:09.182Z,100269.50
2022-08-28T18:22:15.851Z,100271.27
2022-08-28T18:27:22.062Z,100264.47
2022-08-28T18:32:28.615Z,100260.41
2022-08-28T18:37:34.593Z,100264.19
2022-08-28T18:42:40.722Z,100255.73
2022-08-28T18:47:47.404Z,100255.98
2022-08-28T18:52:55.079Z,100267.27
2022-08-28T18:58:02.797Z,100277.04
2022-08-28T19:03:09.515Z,100277.10
2022-08-28T19:08:15.758Z,100278.42
2022-08-28T19:13:21.800Z,100272.96
2022-08-28T19:18:29.954Z,100274.46
2022-08-28T19:23:36.329Z,100277.60
2022-08-28T19:28:43.695Z,100275.12
2022-08-28T19:33:49.791Z,100276.73
2022-08-28T19:38:55.701Z,100274.99
2022-08-28T19:44:01.685Z,100272.39
2022-08-28T19:49:10.353Z,100268.34
2022-08-28T19:54:16.251Z,100265.02
2022-08-28T19:59:26.942Z,100264.98
2022-08-28T20:04:33.274Z,100261.43
2022-08-28T20:09:39.390Z,100258.27
2022-08-28T20:14:45.800Z,100255.08
2022-08-28T20:19:51.874Z,100250.41
2022-08-28T20:24:57.766Z,100250.94
2022-08-28T20:30:10.422Z,100252.91
2022-08-28T20:35:17.651Z,100252.73
2022-08-28T20:40:28.395Z,100252.06
2022-08-28T20:45:34.513Z,100242.45
2022-08-28T20:50:40.247Z,100245.55
2022-08-28T20:55:46.876Z,100243.95
2022-08-28T21:00:53.496Z,100242.90
2022-08-28T21:06:06.229Z,100251.58
2022-08-28T21:11:12.212Z,100255.89
2022-08-28T21:16:18.562Z,100250.34
2022-08-28T21:21:24.806Z,100251.63
2022-08-28T21:26:30.886Z,100247.65
2022-08-28T21:31:37.063Z,100251.98
2022-08-28T21:36:50.115Z,100259.22
2022-08-28T21:41:57.300Z,100271.13
2022-08-28T21:47:03.109Z,100275.60
2022-08-28T21:52:09.092Z,100283.98
2022-08-28T21:57:15.926Z,100300.15
2022-08-28T22:02:21.967Z,100305.14
2022-08-28T22:07:27.899Z,100312.64
2022-08-28T22:12:34.301Z,100314.33
2022-08-28T22:17:40.418Z,100315.56
2022-08-28T22:23:05.341Z,100314.58
2022-08-28T22:28:11.750Z,100318.30
2022-08-28T22:33:17.801Z,100323.27
2022-08-28T22:38:25.264Z,100320.36
2022-08-28T22:43:31.462Z,100321.38
2022-08-28T22:48:37.866Z,100328.86
2022-08-28T22:53:44.917Z,100337.70
2022-08-28T22:58:51.053Z,100344.91
2022-08-28T23:03:57.818Z,100342.25
2022-08-28T23:09:03.897Z,100342.77
2022-08-28T23:14:10.024Z,100341.86
2022-08-28T23:19:16.604Z,100348.05
2022-08-28T23:24:22.754Z,100358.94
2022-08-28T23:29:29.423Z,100368.51
2022-08-28T23:34:36.566Z,100362.93
2022-08-28T23:39:43.739Z,100355.02
2022-08-28T23:44:49.675Z,100346.99
2022-08-28T23:49:55.878Z,100336.98
2022-08-28T23:55:02.132Z,100324.01
